sensor_id;sensor_type;location;lat;lon;timestamp;P1;durP1;ratioP1;P2;durP2;ratioP2
286;SDS011;127;48.770;9.212;2022-11-20T00:01:36;18.48;;;9.55;;
286;SDS011;127;48.770;9.212;2022-11-20T00:04:05;23.67;;;10.52;;
286;SDS011;127;48.770;9.212;2022-11-20T00:06:36;22.88;;;9.90;;
286;SDS011;127;48.770;9.212;2022-11-20T00:09:05;20.50;;;10.77;;
286;SDS011;127;48.770;9.212;2022-11-20T00:11:33;16.20;;;9.30;;
286;SDS011;127;48.770;9.212;2022-11-20T00:14:02;21.40;;;10.20;;
286;SDS011;127;48.770;9.212;2022-11-20T00:16:31;25.30;;;10.40;;
286;SDS011;127;48.770;9.212;2022-11-20T00:19:00;19.35;;;9.95;;
286;SDS011;127;48.770;9.212;2022-11-20T00:21:30;19.90;;;9.55;;
286;SDS011;127;48.770;9.212;2022-11-20T00:24:01;21.00;;;10.85;;
286;SDS011;127;48.770;9.212;2022-11-20T00:26:30;17.67;;;10.18;;
286;SDS011;127;48.770;9.212;2022-11-20T00:29:00;22.00;;;10.32;;
286;SDS011;127;48.770;9.212;2022-11-20T00:31:29;17.13;;;7.68;;
286;SDS011;127;48.770;9.212;2022-11-20T00:33:58;14.68;;;8.05;;
286;SDS011;127;48.770;9.212;2022-11-20T00:36:27;12.35;;;7.15;;
286;SDS011;127;48.770;9.212;2022-11-20T00:39:02;12.88;;;6.28;;
286;SDS011;127;48.770;9.212;2022-11-20T00:41:31;9.83;;;5.07;;
286;SDS011;127;48.770;9.212;2022-11-20T00:43:59;6.72;;;4.43;;
286;SDS011;127;48.770;9.212;2022-11-20T00:46:28;5.57;;;4.25;;
286;SDS011;127;48.770;9.212;2022-11-20T00:48:57;7.25;;;3.97;;
286;SDS011;127;48.770;9.212;2022-11-20T00:51:26;6.53;;;4.28;;
286;SDS011;127;48.770;9.212;2022-11-20T00:53:56;5.35;;;3.60;;
286;SDS011;127;48.770;9.212;2022-11-20T00:56:27;5.93;;;4.28;;
286;SDS011;127;48.770;9.212;2022-11-20T00:58:58;6.43;;;3.92;;
286;SDS011;127;48.770;9.212;2022-11-20T01:01:27;5.20;;;3.45;;
286;SDS011;127;48.770;9.212;2022-11-20T01:03:57;10.07;;;3.30;;
286;SDS011;127;48.770;9.212;2022-11-20T01:06:28;4.32;;;3.25;;
286;SDS011;127;48.770;9.212;2022-11-20T01:08:58;5.15;;;3.30;;
286;SDS011;127;48.770;9.212;2022-11-20T01:11:32;6.38;;;3.95;;
286;SDS011;127;48.770;9.212;2022-11-20T01:14:03;6.43;;;3.50;;
286;SDS011;127;48.770;9.212;2022-11-20T01:16:34;6.90;;;3.95;;
286;SDS011;127;48.770;9.212;2022-11-20T01:19:05;7.60;;;3.38;;
286;SDS011;127;48.770;9.212;2022-11-20T01:21:35;5.55;;;3.20;;
286;SDS011;127;48.770;9.212;2022-11-20T01:24:06;3.63;;;3.10;;
286;SDS011;127;48.770;9.212;2022-11-20T01:26:41;4.05;;;3.13;;
286;SDS011;127;48.770;9.212;2022-11-20T01:29:12;4.55;;;3.55;;
286;SDS011;127;48.770;9.212;2022-11-20T01:31:43;6.45;;;3.63;;
286;SDS011;127;48.770;9.212;2022-11-20T01:34:12;5.15;;;3.10;;
286;SDS011;127;48.770;9.212;2022-11-20T01:36:42;7.40;;;3.10;;
286;SDS011;127;48.770;9.212;2022-11-20T01:39:12;7.82;;;4.15;;
286;SDS011;127;48.770;9.212;2022-11-20T01:41:45;6.95;;;3.50;;
286;SDS011;127;48.770;9.212;2022-11-20T01:44:45;3.57;;;3.20;;
286;SDS011;127;48.770;9.212;2022-11-20T01:47:17;6.55;;;3.40;;
286;SDS011;127;48.770;9.212;2022-11-20T01:49:52;3.70;;;3.10;;
286;SDS011;127;48.770;9.212;2022-11-20T01:52:25;3.55;;;3.15;;
286;SDS011;127;48.770;9.212;2022-11-20T01:54:59;5.63;;;3.72;;
286;SDS011;127;48.770;9.212;2022-11-20T01:57:34;6.13;;;4.47;;
286;SDS011;127;48.770;9.212;2022-11-20T02:00:06;4.63;;;3.45;;
286;SDS011;127;48.770;9.212;2022-11-20T02:02:37;5.00;;;3.75;;
286;SDS011;127;48.770;9.212;2022-11-20T02:05:11;4.07;;;3.45;;
286;SDS011;127;48.770;9.212;2022-11-20T02:07:44;6.00;;;3.45;;
286;SDS011;127;48.770;9.212;2022-11-20T02:10:14;6.07;;;3.97;;
286;SDS011;127;48.770;9.212;2022-11-20T02:12:45;13.43;;;3.70;;
286;SDS011;127;48.770;9.212;2022-11-20T02:15:27;4.05;;;3.22;;
286;SDS011;127;48.770;9.212;2022-11-20T02:17:55;6.20;;;4.38;;
286;SDS011;127;48.770;9.212;2022-11-20T02:20:24;7.18;;;3.53;;
286;SDS011;127;48.770;9.212;2022-11-20T02:22:54;8.77;;;3.75;;
286;SDS011;127;48.770;9.212;2022-11-20T02:25:30;4.47;;;3.75;;
286;SDS011;127;48.770;9.212;2022-11-20T02:28:01;8.82;;;3.85;;
286;SDS011;127;48.770;9.212;2022-11-20T02:30:30;4.20;;;3.40;;
286;SDS011;127;48.770;9.212;2022-11-20T02:32:59;4.63;;;3.80;;
286;SDS011;127;48.770;9.212;2022-11-20T02:35:39;7.75;;;3.95;;
286;SDS011;127;48.770;9.212;2022-11-20T02:38:10;9.27;;;4.03;;
286;SDS011;127;48.770;9.212;2022-11-20T02:40:41;4.07;;;3.70;;
286;SDS011;127;48.770;9.212;2022-11-20T02:43:10;4.38;;;3.65;;
286;SDS011;127;48.770;9.212;2022-11-20T02:45:39;7.75;;;3.97;;
286;SDS011;127;48.770;9.212;2022-11-20T02:48:07;8.73;;;4.07;;
286;SDS011;127;48.770;9.212;2022-11-20T02:50:36;7.90;;;4.00;;
286;SDS011;127;48.770;9.212;2022-11-20T02:53:06;4.72;;;3.97;;
286;SDS011;127;48.770;9.212;2022-11-20T02:55:35;9.07;;;3.53;;
286;SDS011;127;48.770;9.212;2022-11-20T02:58:06;5.82;;;3.88;;
286;SDS011;127;48.770;9.212;2022-11-20T03:00:35;10.68;;;4.38;;
286;SDS011;127;48.770;9.212;2022-11-20T03:03:03;4.60;;;3.28;;
286;SDS011;127;48.770;9.212;2022-11-20T03:05:32;4.63;;;3.70;;
286;SDS011;127;48.770;9.212;2022-11-20T03:08:01;4.03;;;3.70;;
286;SDS011;127;48.770;9.212;2022-11-20T03:10:29;5.82;;;3.97;;
286;SDS011;127;48.770;9.212;2022-11-20T03:12:58;8.05;;;4.50;;
286;SDS011;127;48.770;9.212;2022-11-20T03:15:29;7.65;;;4.68;;
286;SDS011;127;48.770;9.212;2022-11-20T03:17:58;6.07;;;4.30;;
286;SDS011;127;48.770;9.212;2022-11-20T03:20:26;8.40;;;4.22;;
286;SDS011;127;48.770;9.212;2022-11-20T03:22:55;6.60;;;4.47;;
286;SDS011;127;48.770;9.212;2022-11-20T03:25:24;9.13;;;4.72;;
286;SDS011;127;48.770;9.212;2022-11-20T03:27:52;6.95;;;4.40;;
286;SDS011;127;48.770;9.212;2022-11-20T03:30:22;6.68;;;4.82;;
286;SDS011;127;48.770;9.212;2022-11-20T03:32:55;9.15;;;5.00;;
286;SDS011;127;48.770;9.212;2022-11-20T03:35:23;9.73;;;5.63;;
286;SDS011;127;48.770;9.212;2022-11-20T03:37:52;8.98;;;4.93;;
286;SDS011;127;48.770;9.212;2022-11-20T03:40:20;9.52;;;4.75;;
286;SDS011;127;48.770;9.212;2022-11-20T03:42:49;7.93;;;5.95;;
286;SDS011;127;48.770;9.212;2022-11-20T03:45:18;11.00;;;5.40;;
286;SDS011;127;48.770;9.212;2022-11-20T03:47:47;10.60;;;6.07;;
286;SDS011;127;48.770;9.212;2022-11-20T03:50:19;12.25;;;5.85;;
286;SDS011;127;48.770;9.212;2022-11-20T03:52:47;10.75;;;7.18;;
286;SDS011;127;48.770;9.212;2022-11-20T03:55:16;13.38;;;6.28;;
286;SDS011;127;48.770;9.212;2022-11-20T03:57:45;7.78;;;5.60;;
286;SDS011;127;48.770;9.212;2022-11-20T04:00:14;10.23;;;5.80;;
286;SDS011;127;48.770;9.212;2022-11-20T04:02:43;10.25;;;6.57;;
286;SDS011;127;48.770;9.212;2022-11-20T04:05:12;7.30;;;5.80;;
286;SDS011;127;48.770;9.212;2022-11-20T04:07:43;9.70;;;6.20;;
286;SDS011;127;48.770;9.212;2022-11-20T04:10:12;10.13;;;6.63;;
286;SDS011;127;48.770;9.212;2022-11-20T04:12:40;12.52;;;6.45;;
286;SDS011;127;48.770;9.212;2022-11-20T04:15:09;8.80;;;6.15;;
286;SDS011;127;48.770;9.212;2022-11-20T04:17:41;11.60;;;7.55;;
286;SDS011;127;48.770;9.212;2022-11-20T04:20:09;9.93;;;6.43;;
286;SDS011;127;48.770;9.212;2022-11-20T04:22:39;12.20;;;7.95;;
286;SDS011;127;48.770;9.212;2022-11-20T04:25:11;9.75;;;6.28;;
286;SDS011;127;48.770;9.212;2022-11-20T04:27:39;11.85;;;6.10;;
286;SDS011;127;48.770;9.212;2022-11-20T04:30:09;10.73;;;6.40;;
286;SDS011;127;48.770;9.212;2022-11-20T04:32:38;12.98;;;7.20;;
286;SDS011;127;48.770;9.212;2022-11-20T04:35:07;9.82;;;6.22;;
286;SDS011;127;48.770;9.212;2022-11-20T04:37:36;8.80;;;5.63;;
286;SDS011;127;48.770;9.212;2022-11-20T04:40:08;10.35;;;6.40;;
286;SDS011;127;48.770;9.212;2022-11-20T04:42:37;9.65;;;6.45;;
286;SDS011;127;48.770;9.212;2022-11-20T04:45:06;8.93;;;6.43;;
286;SDS011;127;48.770;9.212;2022-11-20T04:47:35;8.35;;;4.68;;
286;SDS011;127;48.770;9.212;2022-11-20T04:50:04;8.75;;;6.10;;
286;SDS011;127;48.770;9.212;2022-11-20T04:52:34;8.13;;;5.97;;
286;SDS011;127;48.770;9.212;2022-11-20T04:55:03;12.57;;;5.93;;
286;SDS011;127;48.770;9.212;2022-11-20T04:57:34;5.82;;;4.90;;
286;SDS011;127;48.770;9.212;2022-11-20T05:00:03;19.42;;;5.40;;
286;SDS011;127;48.770;9.212;2022-11-20T05:02:33;7.70;;;4.78;;
286;SDS011;127;48.770;9.212;2022-11-20T05:05:02;9.15;;;5.07;;
286;SDS011;127;48.770;9.212;2022-11-20T05:07:31;9.70;;;5.28;;
286;SDS011;127;48.770;9.212;2022-11-20T05:09:59;6.30;;;5.00;;
286;SDS011;127;48.770;9.212;2022-11-20T05:12:28;7.03;;;5.20;;
286;SDS011;127;48.770;9.212;2022-11-20T05:14:59;8.95;;;5.68;;
286;SDS011;127;48.770;9.212;2022-11-20T05:17:28;11.95;;;5.88;;
286;SDS011;127;48.770;9.212;2022-11-20T05:19:56;8.77;;;5.90;;
286;SDS011;127;48.770;9.212;2022-11-20T05:22:25;14.63;;;5.18;;
286;SDS011;127;48.770;9.212;2022-11-20T05:24:53;7.55;;;4.50;;
286;SDS011;127;48.770;9.212;2022-11-20T05:27:22;5.70;;;4.60;;
286;SDS011;127;48.770;9.212;2022-11-20T05:29:51;8.10;;;5.18;;
286;SDS011;127;48.770;9.212;2022-11-20T05:32:22;8.43;;;5.57;;
286;SDS011;127;48.770;9.212;2022-11-20T05:34:51;6.80;;;4.45;;
286;SDS011;127;48.770;9.212;2022-11-20T05:37:20;7.65;;;5.03;;
286;SDS011;127;48.770;9.212;2022-11-20T05:39:49;7.35;;;5.10;;
286;SDS011;127;48.770;9.212;2022-11-20T05:42:17;6.30;;;5.03;;
286;SDS011;127;48.770;9.212;2022-11-20T05:44:58;9.05;;;5.00;;
286;SDS011;127;48.770;9.212;2022-11-20T05:47:31;11.60;;;4.82;;
286;SDS011;127;48.770;9.212;2022-11-20T05:50:00;8.43;;;5.65;;
286;SDS011;127;48.770;9.212;2022-11-20T05:52:29;7.53;;;4.50;;
286;SDS011;127;48.770;9.212;2022-11-20T05:54:58;8.93;;;5.10;;
286;SDS011;127;48.770;9.212;2022-11-20T05:57:26;8.13;;;4.70;;
286;SDS011;127;48.770;9.212;2022-11-20T05:59:55;9.35;;;5.25;;
286;SDS011;127;48.770;9.212;2022-11-20T06:02:24;7.93;;;5.20;;
286;SDS011;127;48.770;9.212;2022-11-20T06:04:55;8.60;;;5.68;;
286;SDS011;127;48.770;9.212;2022-11-20T06:07:24;5.97;;;4.50;;
286;SDS011;127;48.770;9.212;2022-11-20T06:09:53;7.00;;;4.95;;
286;SDS011;127;48.770;9.212;2022-11-20T06:12:21;9.40;;;5.30;;
286;SDS011;127;48.770;9.212;2022-11-20T06:14:50;6.30;;;4.95;;
286;SDS011;127;48.770;9.212;2022-11-20T06:17:19;6.18;;;4.22;;
286;SDS011;127;48.770;9.212;2022-11-20T06:19:47;6.70;;;4.10;;
286;SDS011;127;48.770;9.212;2022-11-20T06:22:19;4.88;;;3.90;;
286;SDS011;127;48.770;9.212;2022-11-20T06:24:47;5.95;;;4.65;;
286;SDS011;127;48.770;9.212;2022-11-20T06:27:16;5.68;;;3.80;;
286;SDS011;127;48.770;9.212;2022-11-20T06:29:45;9.02;;;4.28;;
286;SDS011;127;48.770;9.212;2022-11-20T06:32:13;6.35;;;4.15;;
286;SDS011;127;48.770;9.212;2022-11-20T06:34:42;9.98;;;4.00;;
286;SDS011;127;48.770;9.212;2022-11-20T06:37:11;5.93;;;4.20;;
286;SDS011;127;48.770;9.212;2022-11-20T06:39:42;8.40;;;4.22;;
286;SDS011;127;48.770;9.212;2022-11-20T06:42:11;10.35;;;4.13;;
286;SDS011;127;48.770;9.212;2022-11-20T06:44:39;3.92;;;3.58;;
286;SDS011;127;48.770;9.212;2022-11-20T06:47:08;7.18;;;3.65;;
286;SDS011;127;48.770;9.212;2022-11-20T06:49:36;5.07;;;4.00;;
286;SDS011;127;48.770;9.212;2022-11-20T06:52:06;4.45;;;3.90;;
286;SDS011;127;48.770;9.212;2022-11-20T06:54:34;5.15;;;4.10;;
286;SDS011;127;48.770;9.212;2022-11-20T06:57:06;5.95;;;4.03;;
286;SDS011;127;48.770;9.212;2022-11-20T06:59:34;11.57;;;4.70;;
286;SDS011;127;48.770;9.212;2022-11-20T07:02:03;7.53;;;3.95;;
286;SDS011;127;48.770;9.212;2022-11-20T07:04:31;5.38;;;4.00;;
286;SDS011;127;48.770;9.212;2022-11-20T07:07:00;6.53;;;3.75;;
286;SDS011;127;48.770;9.212;2022-11-20T07:09:29;4.28;;;3.75;;
286;SDS011;127;48.770;9.212;2022-11-20T07:11:57;6.15;;;4.30;;
286;SDS011;127;48.770;9.212;2022-11-20T07:14:28;4.43;;;3.90;;
286;SDS011;127;48.770;9.212;2022-11-20T07:16:57;7.65;;;3.53;;
286;SDS011;127;48.770;9.212;2022-11-20T07:19:26;10.07;;;4.35;;
286;SDS011;127;48.770;9.212;2022-11-20T07:21:54;4.82;;;4.15;;
286;SDS011;127;48.770;9.212;2022-11-20T07:24:23;7.47;;;4.17;;
286;SDS011;127;48.770;9.212;2022-11-20T07:26:51;4.97;;;3.85;;
286;SDS011;127;48.770;9.212;2022-11-20T07:29:20;4.43;;;3.88;;
286;SDS011;127;48.770;9.212;2022-11-20T07:31:51;4.40;;;3.60;;
286;SDS011;127;48.770;9.212;2022-11-20T07:34:20;5.65;;;4.05;;
286;SDS011;127;48.770;9.212;2022-11-20T07:36:49;6.82;;;3.70;;
286;SDS011;127;48.770;9.212;2022-11-20T07:39:18;3.70;;;3.30;;
286;SDS011;127;48.770;9.212;2022-11-20T07:41:46;5.80;;;4.07;;
286;SDS011;127;48.770;9.212;2022-11-20T07:44:15;7.90;;;4.38;;
286;SDS011;127;48.770;9.212;2022-11-20T07:46:43;9.43;;;5.13;;
286;SDS011;127;48.770;9.212;2022-11-20T07:49:15;4.95;;;3.25;;
286;SDS011;127;48.770;9.212;2022-11-20T07:51:43;3.70;;;3.30;;
286;SDS011;127;48.770;9.212;2022-11-20T07:54:12;7.80;;;3.67;;
286;SDS011;127;48.770;9.212;2022-11-20T07:56:41;9.10;;;3.75;;
286;SDS011;127;48.770;9.212;2022-11-20T07:59:09;6.50;;;3.63;;
286;SDS011;127;48.770;9.212;2022-11-20T08:01:38;4.00;;;3.30;;
286;SDS011;127;48.770;9.212;2022-11-20T08:04:08;4.05;;;3.00;;
286;SDS011;127;48.770;9.212;2022-11-20T08:06:39;4.45;;;3.30;;
286;SDS011;127;48.770;9.212;2022-11-20T08:09:08;4.10;;;3.47;;
286;SDS011;127;48.770;9.212;2022-11-20T08:11:37;4.17;;;3.13;;
286;SDS011;127;48.770;9.212;2022-11-20T08:14:18;9.13;;;3.80;;
286;SDS011;127;48.770;9.212;2022-11-20T08:16:47;4.47;;;3.93;;
286;SDS011;127;48.770;9.212;2022-11-20T08:19:17;7.43;;;3.50;;
286;SDS011;127;48.770;9.212;2022-11-20T08:21:49;4.63;;;2.93;;
286;SDS011;127;48.770;9.212;2022-11-20T08:24:17;5.80;;;3.28;;
286;SDS011;127;48.770;9.212;2022-11-20T08:26:46;5.37;;;3.87;;
286;SDS011;127;48.770;9.212;2022-11-20T08:29:15;2.90;;;2.70;;
286;SDS011;127;48.770;9.212;2022-11-20T08:31:43;3.10;;;2.93;;
286;SDS011;127;48.770;9.212;2022-11-20T08:34:12;2.87;;;2.67;;
286;SDS011;127;48.770;9.212;2022-11-20T08:36:41;3.50;;;3.00;;
286;SDS011;127;48.770;9.212;2022-11-20T08:39:13;5.57;;;3.22;;
286;SDS011;127;48.770;9.212;2022-11-20T08:41:42;3.87;;;2.77;;
286;SDS011;127;48.770;9.212;2022-11-20T08:44:11;4.37;;;3.13;;
286;SDS011;127;48.770;9.212;2022-11-20T08:46:40;3.50;;;2.63;;
286;SDS011;127;48.770;9.212;2022-11-20T08:49:11;6.50;;;2.60;;
286;SDS011;127;48.770;9.212;2022-11-20T08:51:41;3.33;;;2.57;;
286;SDS011;127;48.770;9.212;2022-11-20T08:54:12;2.40;;;2.20;;
286;SDS011;127;48.770;9.212;2022-11-20T08:56:44;3.80;;;2.63;;
286;SDS011;127;48.770;9.212;2022-11-20T08:59:13;4.03;;;3.03;;
286;SDS011;127;48.770;9.212;2022-11-20T09:01:41;4.00;;;2.13;;
286;SDS011;127;48.770;9.212;2022-11-20T09:04:10;2.37;;;2.20;;
286;SDS011;127;48.770;9.212;2022-11-20T09:06:39;2.70;;;2.47;;
286;SDS011;127;48.770;9.212;2022-11-20T09:09:08;5.23;;;2.37;;
286;SDS011;127;48.770;9.212;2022-11-20T09:11:39;1.70;;;1.60;;
286;SDS011;127;48.770;9.212;2022-11-20T09:14:08;2.90;;;2.50;;
286;SDS011;127;48.770;9.212;2022-11-20T09:16:36;4.53;;;2.40;;
286;SDS011;127;48.770;9.212;2022-11-20T09:19:05;3.50;;;2.47;;
286;SDS011;127;48.770;9.212;2022-11-20T09:21:33;3.63;;;2.30;;
286;SDS011;127;48.770;9.212;2022-11-20T09:24:02;2.53;;;2.37;;
286;SDS011;127;48.770;9.212;2022-11-20T09:26:32;2.20;;;1.50;;
286;SDS011;127;48.770;9.212;2022-11-20T09:29:04;2.90;;;2.70;;
286;SDS011;127;48.770;9.212;2022-11-20T09:31:32;3.13;;;2.23;;
286;SDS011;127;48.770;9.212;2022-11-20T09:34:01;1.90;;;1.83;;
286;SDS011;127;48.770;9.212;2022-11-20T09:36:29;2.07;;;1.93;;
286;SDS011;127;48.770;9.212;2022-11-20T09:38:58;2.97;;;2.23;;
286;SDS011;127;48.770;9.212;2022-11-20T09:44:32;3.77;;;2.40;;
286;SDS011;127;48.770;9.212;2022-11-20T09:47:16;2.27;;;2.07;;
286;SDS011;127;48.770;9.212;2022-11-20T09:49:55;5.87;;;2.00;;
286;SDS011;127;48.770;9.212;2022-11-20T09:52:37;2.37;;;2.10;;
286;SDS011;127;48.770;9.212;2022-11-20T09:55:14;2.37;;;2.13;;
286;SDS011;127;48.770;9.212;2022-11-20T09:57:44;2.20;;;2.00;;
286;SDS011;127;48.770;9.212;2022-11-20T10:00:19;1.90;;;1.80;;
286;SDS011;127;48.770;9.212;2022-11-20T10:02:48;1.70;;;1.60;;
286;SDS011;127;48.770;9.212;2022-11-20T10:05:24;2.30;;;2.10;;
286;SDS011;127;48.770;9.212;2022-11-20T10:07:58;1.60;;;1.50;;
286;SDS011;127;48.770;9.212;2022-11-20T10:10:34;2.00;;;1.90;;
286;SDS011;127;48.770;9.212;2022-11-20T10:13:14;2.13;;;1.97;;
286;SDS011;127;48.770;9.212;2022-11-20T10:15:57;2.13;;;1.77;;
286;SDS011;127;48.770;9.212;2022-11-20T10:18:36;2.17;;;2.03;;
286;SDS011;127;48.770;9.212;2022-11-20T10:21:13;1.93;;;1.83;;
286;SDS011;127;48.770;9.212;2022-11-20T10:23:56;2.13;;;1.83;;
286;SDS011;127;48.770;9.212;2022-11-20T10:26:39;1.60;;;1.50;;
286;SDS011;127;48.770;9.212;2022-11-20T10:29:16;2.07;;;1.93;;
286;SDS011;127;48.770;9.212;2022-11-20T10:31:51;2.80;;;2.03;;
286;SDS011;127;48.770;9.212;2022-11-20T10:34:23;2.90;;;2.23;;
286;SDS011;127;48.770;9.212;2022-11-20T10:36:57;1.67;;;1.63;;
286;SDS011;127;48.770;9.212;2022-11-20T10:39:32;1.95;;;1.90;;
286;SDS011;127;48.770;9.212;2022-11-20T10:42:07;6.10;;;2.60;;
286;SDS011;127;48.770;9.212;2022-11-20T10:44:39;2.75;;;2.30;;
286;SDS011;127;48.770;9.212;2022-11-20T10:47:27;2.50;;;2.20;;
286;SDS011;127;48.770;9.212;2022-11-20T10:49:58;2.72;;;2.45;;
286;SDS011;127;48.770;9.212;2022-11-20T10:52:32;2.37;;;2.10;;
286;SDS011;127;48.770;9.212;2022-11-20T10:55:11;2.55;;;2.35;;
286;SDS011;127;48.770;9.212;2022-11-20T10:57:54;4.88;;;2.65;;
286;SDS011;127;48.770;9.212;2022-11-20T11:00:30;2.85;;;2.25;;
286;SDS011;127;48.770;9.212;2022-11-20T11:03:02;4.17;;;2.70;;
286;SDS011;127;48.770;9.212;2022-11-20T11:05:32;3.03;;;2.53;;
286;SDS011;127;48.770;9.212;2022-11-20T11:08:08;2.38;;;2.15;;
286;SDS011;127;48.770;9.212;2022-11-20T11:10:42;2.40;;;2.20;;
286;SDS011;127;48.770;9.212;2022-11-20T11:13:21;3.15;;;2.22;;
286;SDS011;127;48.770;9.212;2022-11-20T11:15:51;3.43;;;2.90;;
286;SDS011;127;48.770;9.212;2022-11-20T11:18:27;3.40;;;2.67;;
286;SDS011;127;48.770;9.212;2022-11-20T11:20:58;3.00;;;2.77;;
286;SDS011;127;48.770;9.212;2022-11-20T11:23:30;2.75;;;2.50;;
286;SDS011;127;48.770;9.212;2022-11-20T11:26:02;4.67;;;3.40;;
286;SDS011;127;48.770;9.212;2022-11-20T11:28:33;3.80;;;3.00;;
286;SDS011;127;48.770;9.212;2022-11-20T11:31:02;3.27;;;3.10;;
286;SDS011;127;48.770;9.212;2022-11-20T11:33:33;3.67;;;3.30;;
286;SDS011;127;48.770;9.212;2022-11-20T11:36:02;4.37;;;2.90;;
286;SDS011;127;48.770;9.212;2022-11-20T11:38:34;3.87;;;2.17;;
286;SDS011;127;48.770;9.212;2022-11-20T11:41:04;2.27;;;2.00;;
286;SDS011;127;48.770;9.212;2022-11-20T11:43:35;2.30;;;1.63;;
286;SDS011;127;48.770;9.212;2022-11-20T11:46:25;1.93;;;1.60;;
286;SDS011;127;48.770;9.212;2022-11-20T11:49:01;9.13;;;2.00;;
286;SDS011;127;48.770;9.212;2022-11-20T11:51:45;4.07;;;1.40;;
286;SDS011;127;48.770;9.212;2022-11-20T11:54:22;4.30;;;1.93;;
286;SDS011;127;48.770;9.212;2022-11-20T11:56:54;4.90;;;2.00;;
286;SDS011;127;48.770;9.212;2022-11-20T11:59:26;3.27;;;1.90;;
286;SDS011;127;48.770;9.212;2022-11-20T12:02:05;2.80;;;1.50;;
286;SDS011;127;48.770;9.212;2022-11-20T12:04:57;5.37;;;2.07;;
286;SDS011;127;48.770;9.212;2022-11-20T12:07:35;4.90;;;1.97;;
286;SDS011;127;48.770;9.212;2022-11-20T12:10:34;4.77;;;1.70;;
286;SDS011;127;48.770;9.212;2022-11-20T12:13:14;8.30;;;1.90;;
286;SDS011;127;48.770;9.212;2022-11-20T12:15:49;6.23;;;2.00;;
286;SDS011;127;48.770;9.212;2022-11-20T12:18:18;4.03;;;2.00;;
286;SDS011;127;48.770;9.212;2022-11-20T12:20:56;3.30;;;2.10;;
286;SDS011;127;48.770;9.212;2022-11-20T12:23:34;2.33;;;1.67;;
286;SDS011;127;48.770;9.212;2022-11-20T12:26:13;4.57;;;1.40;;
286;SDS011;127;48.770;9.212;2022-11-20T12:28:52;4.50;;;1.87;;
286;SDS011;127;48.770;9.212;2022-11-20T12:31:35;3.33;;;1.63;;
286;SDS011;127;48.770;9.212;2022-11-20T12:34:19;3.20;;;1.20;;
286;SDS011;127;48.770;9.212;2022-11-20T12:37:21;3.20;;;1.60;;
286;SDS011;127;48.770;9.212;2022-11-20T12:40:02;3.30;;;1.00;;
286;SDS011;127;48.770;9.212;2022-11-20T12:42:46;5.70;;;1.53;;
286;SDS011;127;48.770;9.212;2022-11-20T12:45:46;2.03;;;1.10;;
286;SDS011;127;48.770;9.212;2022-11-20T12:57:41;1.83;;;1.20;;
286;SDS011;127;48.770;9.212;2022-11-20T13:00:16;1.97;;;1.37;;
286;SDS011;127;48.770;9.212;2022-11-20T13:03:02;2.53;;;1.40;;
286;SDS011;127;48.770;9.212;2022-11-20T13:05:51;2.40;;;1.20;;
286;SDS011;127;48.770;9.212;2022-11-20T13:08:28;2.30;;;1.13;;
286;SDS011;127;48.770;9.212;2022-11-20T13:11:02;1.40;;;0.97;;
286;SDS011;127;48.770;9.212;2022-11-20T13:13:43;4.50;;;1.20;;
286;SDS011;127;48.770;9.212;2022-11-20T13:16:30;1.50;;;1.07;;
286;SDS011;127;48.770;9.212;2022-11-20T13:19:05;2.53;;;1.60;;
286;SDS011;127;48.770;9.212;2022-11-20T13:21:39;1.93;;;1.20;;
286;SDS011;127;48.770;9.212;2022-11-20T13:24:20;2.03;;;1.20;;
286;SDS011;127;48.770;9.212;2022-11-20T13:27:01;2.23;;;1.50;;
286;SDS011;127;48.770;9.212;2022-11-20T13:29:34;1.37;;;1.03;;
286;SDS011;127;48.770;9.212;2022-11-20T13:32:05;1.80;;;1.10;;
286;SDS011;127;48.770;9.212;2022-11-20T13:34:50;2.93;;;1.70;;
286;SDS011;127;48.770;9.212;2022-11-20T13:37:24;1.93;;;1.50;;
286;SDS011;127;48.770;9.212;2022-11-20T13:43:00;3.70;;;1.57;;
286;SDS011;127;48.770;9.212;2022-11-20T13:45:34;1.87;;;1.20;;
286;SDS011;127;48.770;9.212;2022-11-20T13:48:04;1.50;;;1.40;;
286;SDS011;127;48.770;9.212;2022-11-20T13:50:49;1.37;;;1.27;;
286;SDS011;127;48.770;9.212;2022-11-20T13:53:46;1.47;;;1.33;;
286;SDS011;127;48.770;9.212;2022-11-20T13:56:39;1.60;;;1.40;;
286;SDS011;127;48.770;9.212;2022-11-20T13:59:21;3.00;;;1.70;;
286;SDS011;127;48.770;9.212;2022-11-20T14:02:05;3.63;;;1.53;;
286;SDS011;127;48.770;9.212;2022-11-20T14:04:41;1.90;;;1.60;;
286;SDS011;127;48.770;9.212;2022-11-20T14:07:12;1.87;;;1.77;;
286;SDS011;127;48.770;9.212;2022-11-20T14:09:48;2.03;;;1.63;;
286;SDS011;127;48.770;9.212;2022-11-20T14:12:21;2.80;;;1.70;;
286;SDS011;127;48.770;9.212;2022-11-20T14:14:54;5.47;;;2.20;;
286;SDS011;127;48.770;9.212;2022-11-20T14:17:29;6.27;;;1.53;;
286;SDS011;127;48.770;9.212;2022-11-20T14:19:59;2.40;;;1.70;;
286;SDS011;127;48.770;9.212;2022-11-20T14:22:31;6.37;;;2.80;;
286;SDS011;127;48.770;9.212;2022-11-20T14:25:04;3.97;;;1.90;;
286;SDS011;127;48.770;9.212;2022-11-20T14:27:35;2.50;;;1.50;;
286;SDS011;127;48.770;9.212;2022-11-20T14:30:11;4.77;;;2.20;;
286;SDS011;127;48.770;9.212;2022-11-20T14:32:45;3.50;;;2.00;;
286;SDS011;127;48.770;9.212;2022-11-20T14:35:17;6.10;;;2.03;;
286;SDS011;127;48.770;9.212;2022-11-20T14:37:49;3.20;;;2.10;;
286;SDS011;127;48.770;9.212;2022-11-20T14:40:22;4.70;;;2.93;;
286;SDS011;127;48.770;9.212;2022-11-20T14:42:56;2.60;;;2.07;;
286;SDS011;127;48.770;9.212;2022-11-20T14:45:26;4.07;;;2.17;;
286;SDS011;127;48.770;9.212;2022-11-20T14:47:57;3.53;;;1.80;;
286;SDS011;127;48.770;9.212;2022-11-20T14:50:27;2.20;;;2.00;;
286;SDS011;127;48.770;9.212;2022-11-20T14:52:57;5.30;;;2.33;;
286;SDS011;127;48.770;9.212;2022-11-20T14:55:28;4.20;;;1.90;;
286;SDS011;127;48.770;9.212;2022-11-20T14:57:59;3.30;;;2.10;;
286;SDS011;127;48.770;9.212;2022-11-20T15:00:29;4.70;;;2.10;;
286;SDS011;127;48.770;9.212;2022-11-20T15:03:01;2.70;;;2.50;;
286;SDS011;127;48.770;9.212;2022-11-20T15:05:43;5.80;;;2.40;;
286;SDS011;127;48.770;9.212;2022-11-20T15:08:13;2.13;;;1.97;;
286;SDS011;127;48.770;9.212;2022-11-20T15:10:46;4.40;;;2.00;;
286;SDS011;127;48.770;9.212;2022-11-20T15:13:16;7.77;;;1.97;;
286;SDS011;127;48.770;9.212;2022-11-20T15:15:51;3.37;;;2.00;;
286;SDS011;127;48.770;9.212;2022-11-20T15:18:24;4.03;;;2.07;;
286;SDS011;127;48.770;9.212;2022-11-20T15:20:57;2.50;;;2.30;;
286;SDS011;127;48.770;9.212;2022-11-20T15:23:29;5.50;;;2.40;;
286;SDS011;127;48.770;9.212;2022-11-20T15:25:57;3.53;;;2.00;;
286;SDS011;127;48.770;9.212;2022-11-20T15:28:27;3.50;;;2.40;;
286;SDS011;127;48.770;9.212;2022-11-20T15:30:59;3.00;;;2.47;;
286;SDS011;127;48.770;9.212;2022-11-20T15:33:30;5.17;;;2.20;;
286;SDS011;127;48.770;9.212;2022-11-20T15:36:00;3.53;;;2.57;;
286;SDS011;127;48.770;9.212;2022-11-20T15:38:29;10.70;;;3.97;;
286;SDS011;127;48.770;9.212;2022-11-20T15:41:00;5.27;;;2.33;;
286;SDS011;127;48.770;9.212;2022-11-20T15:43:29;2.60;;;2.40;;
286;SDS011;127;48.770;9.212;2022-11-20T15:45:58;2.50;;;2.30;;
286;SDS011;127;48.770;9.212;2022-11-20T15:48:33;3.30;;;2.47;;
286;SDS011;127;48.770;9.212;2022-11-20T15:51:06;2.67;;;2.22;;
286;SDS011;127;48.770;9.212;2022-11-20T15:53:47;3.57;;;2.20;;
286;SDS011;127;48.770;9.212;2022-11-20T15:56:16;4.87;;;2.57;;
286;SDS011;127;48.770;9.212;2022-11-20T15:58:44;10.13;;;2.90;;
286;SDS011;127;48.770;9.212;2022-11-20T16:01:14;6.85;;;2.47;;
286;SDS011;127;48.770;9.212;2022-11-20T16:03:47;2.53;;;2.10;;
286;SDS011;127;48.770;9.212;2022-11-20T16:06:16;4.07;;;2.73;;
286;SDS011;127;48.770;9.212;2022-11-20T16:08:45;4.70;;;3.05;;
286;SDS011;127;48.770;9.212;2022-11-20T16:11:17;3.10;;;2.40;;
286;SDS011;127;48.770;9.212;2022-11-20T16:13:46;3.37;;;2.53;;
286;SDS011;127;48.770;9.212;2022-11-20T16:16:28;2.73;;;2.60;;
286;SDS011;127;48.770;9.212;2022-11-20T16:19:01;3.97;;;2.80;;
286;SDS011;127;48.770;9.212;2022-11-20T16:21:31;3.72;;;3.00;;
286;SDS011;127;48.770;9.212;2022-11-20T16:24:00;3.77;;;2.70;;
286;SDS011;127;48.770;9.212;2022-11-20T16:26:30;2.83;;;2.50;;
286;SDS011;127;48.770;9.212;2022-11-20T16:29:01;3.00;;;2.80;;